sensor_id;sensor_type;location;lat;lon;timestamp;temperature;humidity
41294;DHT22;27037;52.010;4.446;2023-12-22T00:00:18;8.80;99.90
41294;DHT22;27037;52.010;4.446;2023-12-22T00:02:43;8.80;99.90
41294;DHT22;27037;52.010;4.446;2023-12-22T00:05:09;8.80;99.90
41294;DHT22;27037;52.010;4.446;2023-12-22T00:07:35;8.90;99.90
41294;DHT22;27037;52.010;4.446;2023-12-22T00:10:00;8.90;99.90
41294;DHT22;27037;52.010;4.446;2023-12-22T00:12:26;8.90;99.90
41294;DHT22;27037;52.010;4.446;2023-12-22T00:14:52;8.90;99.90
41294;DHT22;27037;52.010;4.446;2023-12-22T00:17:17;8.90;99.90
41294;DHT22;27037;52.010;4.446;2023-12-22T00:19:43;8.90;99.90
41294;DHT22;27037;52.010;4.446;2023-12-22T00:22:08;8.90;99.90
41294;DHT22;27037;52.010;4.446;2023-12-22T00:24:34;8.90;99.90
41294;DHT22;27037;52.010;4.446;2023-12-22T00:26:59;8.90;99.90
41294;DHT22;27037;52.010;4.446;2023-12-22T00:29:25;8.90;99.90
41294;DHT22;27037;52.010;4.446;2023-12-22T00:31:53;8.90;99.90
41294;DHT22;27037;52.010;4.446;2023-12-22T00:34:19;9.00;99.90
41294;DHT22;27037;52.010;4.446;2023-12-22T00:36:46;9.00;99.90
41294;DHT22;27037;52.010;4.446;2023-12-22T00:39:12;9.10;99.90
41294;DHT22;27037;52.010;4.446;2023-12-22T00:41:38;9.10;99.90
41294;DHT22;27037;52.010;4.446;2023-12-22T00:44:03;9.10;99.90
41294;DHT22;27037;52.010;4.446;2023-12-22T00:46:29;9.10;99.90
41294;DHT22;27037;52.010;4.446;2023-12-22T00:48:54;9.00;99.90
41294;DHT22;27037;52.010;4.446;2023-12-22T00:51:20;9.00;99.90
41294;DHT22;27037;52.010;4.446;2023-12-22T00:53:45;9.00;99.90
41294;DHT22;27037;52.010;4.446;2023-12-22T00:56:11;9.00;99.90
41294;DHT22;27037;52.010;4.446;2023-12-22T00:58:39;9.00;99.90
41294;DHT22;27037;52.010;4.446;2023-12-22T01:01:04;9.00;99.90
41294;DHT22;27037;52.010;4.446;2023-12-22T01:03:30;9.00;99.90
41294;DHT22;27037;52.010;4.446;2023-12-22T01:05:55;9.00;99.90
41294;DHT22;27037;52.010;4.446;2023-12-22T01:08:21;9.00;99.90
41294;DHT22;27037;52.010;4.446;2023-12-22T01:10:47;9.00;99.90
41294;DHT22;27037;52.010;4.446;2023-12-22T01:13:13;9.00;99.90
41294;DHT22;27037;52.010;4.446;2023-12-22T01:15:38;9.00;99.90
41294;DHT22;27037;52.010;4.446;2023-12-22T01:18:04;9.00;99.90
41294;DHT22;27037;52.010;4.446;2023-12-22T01:20:30;9.00;99.90
41294;DHT22;27037;52.010;4.446;2023-12-22T01:22:55;9.00;99.90
41294;DHT22;27037;52.010;4.446;2023-12-22T01:25:21;9.00;99.90
41294;DHT22;27037;52.010;4.446;2023-12-22T01:27:47;9.00;99.90
41294;DHT22;27037;52.010;4.446;2023-12-22T01:30:14;9.00;99.90
41294;DHT22;27037;52.010;4.446;2023-12-22T01:32:39;9.00;99.90
41294;DHT22;27037;52.010;4.446;2023-12-22T01:35:05;9.00;99.90
41294;DHT22;27037;52.010;4.446;2023-12-22T01:37:38;9.00;99.90
41294;DHT22;27037;52.010;4.446;2023-12-22T01:40:04;9.00;99.90
41294;DHT22;27037;52.010;4.446;2023-12-22T01:42:30;9.00;99.90
41294;DHT22;27037;52.010;4.446;2023-12-22T01:44:56;9.00;99.90
41294;DHT22;27037;52.010;4.446;2023-12-22T01:47:22;9.00;99.90
41294;DHT22;27037;52.010;4.446;2023-12-22T01:49:48;9.00;99.90
41294;DHT22;27037;52.010;4.446;2023-12-22T01:52:15;9.00;99.90
41294;DHT22;27037;52.010;4.446;2023-12-22T01:54:41;9.00;99.90
41294;DHT22;27037;52.010;4.446;2023-12-22T01:57:07;9.00;99.90
41294;DHT22;27037;52.010;4.446;2023-12-22T01:59:33;9.00;99.90
41294;DHT22;27037;52.010;4.446;2023-12-22T02:02:03;9.00;99.90
41294;DHT22;27037;52.010;4.446;2023-12-22T02:04:30;9.10;99.90
41294;DHT22;27037;52.010;4.446;2023-12-22T02:06:58;9.10;99.90
41294;DHT22;27037;52.010;4.446;2023-12-22T02:09:26;9.20;99.90
41294;DHT22;27037;52.010;4.446;2023-12-22T02:11:52;9.20;99.90
41294;DHT22;27037;52.010;4.446;2023-12-22T02:14:17;9.20;99.90
41294;DHT22;27037;52.010;4.446;2023-12-22T02:16:55;9.20;99.90
41294;DHT22;27037;52.010;4.446;2023-12-22T02:22:07;9.20;99.90
41294;DHT22;27037;52.010;4.446;2023-12-22T02:24:33;9.30;99.90
41294;DHT22;27037;52.010;4.446;2023-12-22T02:29:42;9.20;99.90
41294;DHT22;27037;52.010;4.446;2023-12-22T02:32:14;9.30;99.90
41294;DHT22;27037;52.010;4.446;2023-12-22T02:34:43;9.30;99.90
41294;DHT22;27037;52.010;4.446;2023-12-22T02:37:12;9.20;99.90
41294;DHT22;27037;52.010;4.446;2023-12-22T02:39:39;9.30;99.90
41294;DHT22;27037;52.010;4.446;2023-12-22T02:42:08;9.30;99.90
41294;DHT22;27037;52.010;4.446;2023-12-22T02:44:33;9.30;99.90
41294;DHT22;27037;52.010;4.446;2023-12-22T02:46:59;9.30;99.90
41294;DHT22;27037;52.010;4.446;2023-12-22T02:49:25;9.30;99.90
41294;DHT22;27037;52.010;4.446;2023-12-22T02:51:50;9.30;99.90
41294;DHT22;27037;52.010;4.446;2023-12-22T02:54:16;9.40;99.90
41294;DHT22;27037;52.010;4.446;2023-12-22T02:56:41;9.30;99.90
41294;DHT22;27037;52.010;4.446;2023-12-22T02:59:09;9.40;99.90
41294;DHT22;27037;52.010;4.446;2023-12-22T03:01:35;9.30;99.90
41294;DHT22;27037;52.010;4.446;2023-12-22T03:04:00;9.30;99.90
41294;DHT22;27037;52.010;4.446;2023-12-22T03:06:26;9.30;99.90
41294;DHT22;27037;52.010;4.446;2023-12-22T03:08:51;9.30;99.90
41294;DHT22;27037;52.010;4.446;2023-12-22T03:11:17;9.30;99.90
41294;DHT22;27037;52.010;4.446;2023-12-22T03:13:42;9.30;99.90
41294;DHT22;27037;52.010;4.446;2023-12-22T03:16:08;9.30;99.90
41294;DHT22;27037;52.010;4.446;2023-12-22T03:18:34;9.30;99.90
41294;DHT22;27037;52.010;4.446;2023-12-22T03:21:00;9.40;99.90
41294;DHT22;27037;52.010;4.446;2023-12-22T03:23:25;9.40;99.90
41294;DHT22;27037;52.010;4.446;2023-12-22T03:25:51;9.40;99.90
41294;DHT22;27037;52.010;4.446;2023-12-22T03:28:16;9.40;99.90
41294;DHT22;27037;52.010;4.446;2023-12-22T03:30:42;9.30;99.90
41294;DHT22;27037;52.010;4.446;2023-12-22T03:33:07;9.40;99.90
41294;DHT22;27037;52.010;4.446;2023-12-22T03:35:33;9.30;99.90
41294;DHT22;27037;52.010;4.446;2023-12-22T03:37:59;9.30;99.90
41294;DHT22;27037;52.010;4.446;2023-12-22T03:40:24;9.30;99.90
41294;DHT22;27037;52.010;4.446;2023-12-22T03:42:50;9.40;99.90
41294;DHT22;27037;52.010;4.446;2023-12-22T03:45:16;9.40;99.90
41294;DHT22;27037;52.010;4.446;2023-12-22T03:47:41;9.40;99.90
41294;DHT22;27037;52.010;4.446;2023-12-22T03:50:07;9.40;99.90
41294;DHT22;27037;52.010;4.446;2023-12-22T03:52:34;9.50;99.90
41294;DHT22;27037;52.010;4.446;2023-12-22T03:54:59;9.40;99.90
41294;DHT22;27037;52.010;4.446;2023-12-22T03:57:25;9.50;99.90
41294;DHT22;27037;52.010;4.446;2023-12-22T03:59:50;9.60;99.90
41294;DHT22;27037;52.010;4.446;2023-12-22T04:02:16;9.50;99.90
41294;DHT22;27037;52.010;4.446;2023-12-22T04:04:41;9.60;99.90
41294;DHT22;27037;52.010;4.446;2023-12-22T04:07:07;9.60;99.90
41294;DHT22;27037;52.010;4.446;2023-12-22T04:09:33;9.60;99.90
41294;DHT22;27037;52.010;4.446;2023-12-22T04:11:59;9.60;99.90
41294;DHT22;27037;52.010;4.446;2023-12-22T04:14:24;9.60;99.90
41294;DHT22;27037;52.010;4.446;2023-12-22T04:16:50;9.60;99.90
41294;DHT22;27037;52.010;4.446;2023-12-22T04:19:18;9.50;99.90
41294;DHT22;27037;52.010;4.446;2023-12-22T04:21:43;9.60;99.90
41294;DHT22;27037;52.010;4.446;2023-12-22T04:24:10;9.60;99.90
41294;DHT22;27037;52.010;4.446;2023-12-22T04:26:36;9.50;99.90
41294;DHT22;27037;52.010;4.446;2023-12-22T04:29:01;9.60;99.90
41294;DHT22;27037;52.010;4.446;2023-12-22T04:31:27;9.50;99.90
41294;DHT22;27037;52.010;4.446;2023-12-22T04:33:53;9.50;99.90
41294;DHT22;27037;52.010;4.446;2023-12-22T04:36:18;9.50;99.90
41294;DHT22;27037;52.010;4.446;2023-12-22T04:38:44;9.60;99.90
41294;DHT22;27037;52.010;4.446;2023-12-22T04:41:09;9.60;99.90
41294;DHT22;27037;52.010;4.446;2023-12-22T04:43:35;9.60;99.90
41294;DHT22;27037;52.010;4.446;2023-12-22T04:46:01;9.70;99.90
41294;DHT22;27037;52.010;4.446;2023-12-22T04:48:26;9.70;99.90
41294;DHT22;27037;52.010;4.446;2023-12-22T04:50:52;9.70;99.90
41294;DHT22;27037;52.010;4.446;2023-12-22T04:53:17;9.70;99.90
41294;DHT22;27037;52.010;4.446;2023-12-22T04:55:43;9.70;99.90
41294;DHT22;27037;52.010;4.446;2023-12-22T04:58:09;9.70;99.90
41294;DHT22;27037;52.010;4.446;2023-12-22T05:00:34;9.70;99.90
41294;DHT22;27037;52.010;4.446;2023-12-22T05:03:00;9.70;99.90
41294;DHT22;27037;52.010;4.446;2023-12-22T05:05:25;9.70;99.90
41294;DHT22;27037;52.010;4.446;2023-12-22T05:07:51;9.70;99.90
41294;DHT22;27037;52.010;4.446;2023-12-22T05:10:17;9.70;99.90
41294;DHT22;27037;52.010;4.446;2023-12-22T05:12:42;9.70;99.90
41294;DHT22;27037;52.010;4.446;2023-12-22T05:15:08;9.70;99.90
41294;DHT22;27037;52.010;4.446;2023-12-22T05:17:34;9.70;99.90
41294;DHT22;27037;52.010;4.446;2023-12-22T05:20:00;9.70;99.90
41294;DHT22;27037;52.010;4.446;2023-12-22T05:22:25;9.70;99.90
41294;DHT22;27037;52.010;4.446;2023-12-22T05:24:51;9.70;99.90
41294;DHT22;27037;52.010;4.446;2023-12-22T05:27:17;9.70;99.90
41294;DHT22;27037;52.010;4.446;2023-12-22T05:29:43;9.70;99.90
41294;DHT22;27037;52.010;4.446;2023-12-22T05:32:09;9.70;99.90
41294;DHT22;27037;52.010;4.446;2023-12-22T05:34:34;9.70;99.90
41294;DHT22;27037;52.010;4.446;2023-12-22T05:37:00;9.70;99.90
41294;DHT22;27037;52.010;4.446;2023-12-22T05:39:25;9.70;99.90
41294;DHT22;27037;52.010;4.446;2023-12-22T05:41:51;9.70;99.90
41294;DHT22;27037;52.010;4.446;2023-12-22T05:44:16;9.70;99.90
41294;DHT22;27037;52.010;4.446;2023-12-22T05:46:42;9.70;99.90
41294;DHT22;27037;52.010;4.446;2023-12-22T05:49:07;9.70;99.90
41294;DHT22;27037;52.010;4.446;2023-12-22T05:51:39;9.70;99.90
41294;DHT22;27037;52.010;4.446;2023-12-22T05:54:08;9.70;99.90
41294;DHT22;27037;52.010;4.446;2023-12-22T05:56:34;9.70;99.90
41294;DHT22;27037;52.010;4.446;2023-12-22T05:58:59;9.70;99.90
41294;DHT22;27037;52.010;4.446;2023-12-22T06:01:25;9.70;99.90
41294;DHT22;27037;52.010;4.446;2023-12-22T06:03:51;9.70;99.90
41294;DHT22;27037;52.010;4.446;2023-12-22T06:06:17;9.70;99.90
41294;DHT22;27037;52.010;4.446;2023-12-22T06:08:43;9.70;99.90
41294;DHT22;27037;52.010;4.446;2023-12-22T06:11:09;9.80;99.90
41294;DHT22;27037;52.010;4.446;2023-12-22T06:13:35;9.80;99.90
41294;DHT22;27037;52.010;4.446;2023-12-22T06:16:01;9.80;99.90
41294;DHT22;27037;52.010;4.446;2023-12-22T06:18:26;9.80;99.90
41294;DHT22;27037;52.010;4.446;2023-12-22T06:20:52;9.80;99.90
41294;DHT22;27037;52.010;4.446;2023-12-22T06:23:18;9.90;99.90
41294;DHT22;27037;52.010;4.446;2023-12-22T06:25:44;9.80;99.90
41294;DHT22;27037;52.010;4.446;2023-12-22T06:28:11;9.90;99.90
41294;DHT22;27037;52.010;4.446;2023-12-22T06:30:37;9.90;99.90
41294;DHT22;27037;52.010;4.446;2023-12-22T06:33:03;9.80;99.90
41294;DHT22;27037;52.010;4.446;2023-12-22T06:35:29;9.80;99.90
41294;DHT22;27037;52.010;4.446;2023-12-22T06:37:56;9.80;99.90
41294;DHT22;27037;52.010;4.446;2023-12-22T06:40:26;9.90;99.90
41294;DHT22;27037;52.010;4.446;2023-12-22T06:42:52;9.90;99.90
41294;DHT22;27037;52.010;4.446;2023-12-22T06:45:17;9.90;99.90
41294;DHT22;27037;52.010;4.446;2023-12-22T06:47:43;9.90;99.90
41294;DHT22;27037;52.010;4.446;2023-12-22T06:50:09;9.90;99.90
41294;DHT22;27037;52.010;4.446;2023-12-22T06:52:34;9.90;99.90
41294;DHT22;27037;52.010;4.446;2023-12-22T06:55:00;9.90;99.90
41294;DHT22;27037;52.010;4.446;2023-12-22T06:57:25;9.90;99.90
41294;DHT22;27037;52.010;4.446;2023-12-22T06:59:51;9.90;99.90
41294;DHT22;27037;52.010;4.446;2023-12-22T07:02:16;9.90;99.90
41294;DHT22;27037;52.010;4.446;2023-12-22T07:04:42;9.90;99.90
41294;DHT22;27037;52.010;4.446;2023-12-22T07:07:08;9.90;99.90
41294;DHT22;27037;52.010;4.446;2023-12-22T07:09:34;9.90;99.90
41294;DHT22;27037;52.010;4.446;2023-12-22T07:11:59;9.90;99.90
41294;DHT22;27037;52.010;4.446;2023-12-22T07:14:25;9.90;99.90
41294;DHT22;27037;52.010;4.446;2023-12-22T07:16:51;9.90;99.90
41294;DHT22;27037;52.010;4.446;2023-12-22T07:19:16;9.90;99.90
41294;DHT22;27037;52.010;4.446;2023-12-22T07:21:42;9.90;99.90
41294;DHT22;27037;52.010;4.446;2023-12-22T07:24:08;9.90;99.90
41294;DHT22;27037;52.010;4.446;2023-12-22T07:26:33;9.90;99.90
41294;DHT22;27037;52.010;4.446;2023-12-22T07:28:59;9.90;99.90
41294;DHT22;27037;52.010;4.446;2023-12-22T07:31:25;9.90;99.90
41294;DHT22;27037;52.010;4.446;2023-12-22T07:33:51;9.90;99.90
41294;DHT22;27037;52.010;4.446;2023-12-22T07:36:17;9.80;99.90
41294;DHT22;27037;52.010;4.446;2023-12-22T07:38:49;9.80;99.90
41294;DHT22;27037;52.010;4.446;2023-12-22T07:41:15;9.80;99.90
41294;DHT22;27037;52.010;4.446;2023-12-22T07:43:40;9.80;99.90
41294;DHT22;27037;52.010;4.446;2023-12-22T07:46:07;9.80;99.90
41294;DHT22;27037;52.010;4.446;2023-12-22T07:48:34;9.80;99.90
41294;DHT22;27037;52.010;4.446;2023-12-22T07:51:00;9.80;99.90
41294;DHT22;27037;52.010;4.446;2023-12-22T07:53:25;9.80;99.90
41294;DHT22;27037;52.010;4.446;2023-12-22T07:55:51;9.80;99.90
41294;DHT22;27037;52.010;4.446;2023-12-22T07:58:16;9.80;99.90
41294;DHT22;27037;52.010;4.446;2023-12-22T08:00:43;9.80;99.90
41294;DHT22;27037;52.010;4.446;2023-12-22T08:03:08;9.80;99.90
41294;DHT22;27037;52.010;4.446;2023-12-22T08:05:35;9.80;99.90
41294;DHT22;27037;52.010;4.446;2023-12-22T08:08:00;9.80;99.90
41294;DHT22;27037;52.010;4.446;2023-12-22T08:10:26;9.80;99.90
41294;DHT22;27037;52.010;4.446;2023-12-22T08:12:52;9.90;99.90
41294;DHT22;27037;52.010;4.446;2023-12-22T08:15:18;9.90;99.90
41294;DHT22;27037;52.010;4.446;2023-12-22T08:17:50;9.90;99.90
41294;DHT22;27037;52.010;4.446;2023-12-22T08:20:20;9.90;99.90
41294;DHT22;27037;52.010;4.446;2023-12-22T08:22:47;9.90;99.90
41294;DHT22;27037;52.010;4.446;2023-12-22T08:25:13;9.90;99.90
41294;DHT22;27037;52.010;4.446;2023-12-22T08:27:39;10.00;99.90
41294;DHT22;27037;52.010;4.446;2023-12-22T08:30:05;10.00;99.90
41294;DHT22;27037;52.010;4.446;2023-12-22T08:32:30;10.00;99.90
41294;DHT22;27037;52.010;4.446;2023-12-22T08:34:56;10.00;99.90
41294;DHT22;27037;52.010;4.446;2023-12-22T08:37:21;10.00;99.90
41294;DHT22;27037;52.010;4.446;2023-12-22T08:39:47;10.00;99.90
41294;DHT22;27037;52.010;4.446;2023-12-22T08:42:13;10.00;99.90
41294;DHT22;27037;52.010;4.446;2023-12-22T08:44:38;10.00;99.90
41294;DHT22;27037;52.010;4.446;2023-12-22T08:47:04;10.00;99.90
41294;DHT22;27037;52.010;4.446;2023-12-22T08:49:29;10.00;99.90
41294;DHT22;27037;52.010;4.446;2023-12-22T08:51:55;10.00;99.90
41294;DHT22;27037;52.010;4.446;2023-12-22T08:54:21;10.00;99.90
41294;DHT22;27037;52.010;4.446;2023-12-22T08:56:47;10.10;99.90
41294;DHT22;27037;52.010;4.446;2023-12-22T08:59:12;10.10;99.90
41294;DHT22;27037;52.010;4.446;2023-12-22T09:01:38;10.20;99.90
41294;DHT22;27037;52.010;4.446;2023-12-22T09:04:06;10.20;99.90
41294;DHT22;27037;52.010;4.446;2023-12-22T09:06:32;10.20;99.90
41294;DHT22;27037;52.010;4.446;2023-12-22T09:08:57;10.20;99.90
41294;DHT22;27037;52.010;4.446;2023-12-22T09:11:23;10.20;99.90
41294;DHT22;27037;52.010;4.446;2023-12-22T09:13:49;10.30;99.90
41294;DHT22;27037;52.010;4.446;2023-12-22T09:16:20;10.30;99.90
41294;DHT22;27037;52.010;4.446;2023-12-22T09:18:46;10.30;99.90
41294;DHT22;27037;52.010;4.446;2023-12-22T09:21:12;10.30;99.90
41294;DHT22;27037;52.010;4.446;2023-12-22T09:23:38;10.40;99.90
41294;DHT22;27037;52.010;4.446;2023-12-22T09:26:03;10.40;99.90
41294;DHT22;27037;52.010;4.446;2023-12-22T09:28:30;10.40;99.90
41294;DHT22;27037;52.010;4.446;2023-12-22T09:30:55;10.40;99.90
41294;DHT22;27037;52.010;4.446;2023-12-22T09:33:21;10.50;99.90
41294;DHT22;27037;52.010;4.446;2023-12-22T09:35:48;10.50;99.90
41294;DHT22;27037;52.010;4.446;2023-12-22T09:38:14;10.50;99.90
41294;DHT22;27037;52.010;4.446;2023-12-22T09:40:39;10.50;99.90
41294;DHT22;27037;52.010;4.446;2023-12-22T09:43:07;10.50;99.90
41294;DHT22;27037;52.010;4.446;2023-12-22T09:45:34;10.50;99.90
41294;DHT22;27037;52.010;4.446;2023-12-22T09:48:01;10.60;99.90
41294;DHT22;27037;52.010;4.446;2023-12-22T09:50:27;10.60;99.90
41294;DHT22;27037;52.010;4.446;2023-12-22T09:52:54;10.60;99.90
41294;DHT22;27037;52.010;4.446;2023-12-22T09:55:21;10.60;99.90
41294;DHT22;27037;52.010;4.446;2023-12-22T09:57:51;10.60;99.90
41294;DHT22;27037;52.010;4.446;2023-12-22T10:00:17;10.60;99.90
41294;DHT22;27037;52.010;4.446;2023-12-22T10:02:44;10.60;99.90
41294;DHT22;27037;52.010;4.446;2023-12-22T10:05:12;10.70;99.90
41294;DHT22;27037;52.010;4.446;2023-12-22T10:07:40;10.70;99.90
41294;DHT22;27037;52.010;4.446;2023-12-22T10:10:07;10.80;99.90
41294;DHT22;27037;52.010;4.446;2023-12-22T10:12:34;10.80;99.90
41294;DHT22;27037;52.010;4.446;2023-12-22T10:15:00;10.80;99.90
41294;DHT22;27037;52.010;4.446;2023-12-22T10:17:27;10.80;99.90
41294;DHT22;27037;52.010;4.446;2023-12-22T10:19:52;10.80;99.90
41294;DHT22;27037;52.010;4.446;2023-12-22T10:22:18;10.80;99.90
41294;DHT22;27037;52.010;4.446;2023-12-22T10:24:47;10.80;99.90
41294;DHT22;27037;52.010;4.446;2023-12-22T10:27:14;10.90;99.90
41294;DHT22;27037;52.010;4.446;2023-12-22T10:29:42;10.90;99.90
41294;DHT22;27037;52.010;4.446;2023-12-22T10:32:07;10.90;99.90
41294;DHT22;27037;52.010;4.446;2023-12-22T10:34:34;10.90;99.90
41294;DHT22;27037;52.010;4.446;2023-12-22T10:37:00;10.90;99.90
41294;DHT22;27037;52.010;4.446;2023-12-22T10:39:30;10.90;99.90
41294;DHT22;27037;52.010;4.446;2023-12-22T10:41:59;11.00;99.90
41294;DHT22;27037;52.010;4.446;2023-12-22T10:44:26;10.90;99.90
41294;DHT22;27037;52.010;4.446;2023-12-22T10:46:52;11.00;99.90
41294;DHT22;27037;52.010;4.446;2023-12-22T10:49:20;11.00;99.90
41294;DHT22;27037;52.010;4.446;2023-12-22T10:51:45;11.00;99.90
41294;DHT22;27037;52.010;4.446;2023-12-22T10:54:11;11.00;99.90
41294;DHT22;27037;52.010;4.446;2023-12-22T10:56:36;11.00;99.90
41294;DHT22;27037;52.010;4.446;2023-12-22T10:59:02;11.00;99.90
41294;DHT22;27037;52.010;4.446;2023-12-22T11:01:30;11.00;99.90
41294;DHT22;27037;52.010;4.446;2023-12-22T11:04:02;11.00;99.90
41294;DHT22;27037;52.010;4.446;2023-12-22T11:06:29;11.00;99.90
41294;DHT22;27037;52.010;4.446;2023-12-22T11:08:57;11.00;99.90
41294;DHT22;27037;52.010;4.446;2023-12-22T11:11:34;11.00;99.90
41294;DHT22;27037;52.010;4.446;2023-12-22T11:14:01;11.10;99.90
41294;DHT22;27037;52.010;4.446;2023-12-22T11:16:30;11.10;99.90
41294;DHT22;27037;52.010;4.446;2023-12-22T11:18:56;11.10;99.90
41294;DHT22;27037;52.010;4.446;2023-12-22T11:21:23;11.10;99.90
41294;DHT22;27037;52.010;4.446;2023-12-22T11:23:53;11.10;99.90
41294;DHT22;27037;52.010;4.446;2023-12-22T11:26:21;11.10;99.90
41294;DHT22;27037;52.010;4.446;2023-12-22T11:28:48;11.10;99.90
41294;DHT22;27037;52.010;4.446;2023-12-22T11:31:15;11.10;99.90
41294;DHT22;27037;52.010;4.446;2023-12-22T11:33:45;11.10;99.90
41294;DHT22;27037;52.010;4.446;2023-12-22T11:36:15;11.10;99.90
41294;DHT22;27037;52.010;4.446;2023-12-22T11:38:42;11.10;99.90
41294;DHT22;27037;52.010;4.446;2023-12-22T11:41:09;11.10;99.90
41294;DHT22;27037;52.010;4.446;2023-12-22T11:43:37;11.10;99.90
41294;DHT22;27037;52.010;4.446;2023-12-22T11:46:03;11.10;99.90
41294;DHT22;27037;52.010;4.446;2023-12-22T11:48:29;11.10;99.90
41294;DHT22;27037;52.010;4.446;2023-12-22T11:50:55;11.10;99.90
41294;DHT22;27037;52.010;4.446;2023-12-22T11:53:22;11.10;99.90
41294;DHT22;27037;52.010;4.446;2023-12-22T11:55:59;11.10;99.90
41294;DHT22;27037;52.010;4.446;2023-12-22T12:01:11;11.10;99.90
41294;DHT22;27037;52.010;4.446;2023-12-22T12:03:41;11.10;99.90
41294;DHT22;27037;52.010;4.446;2023-12-22T12:08:39;11.20;99.90
41294;DHT22;27037;52.010;4.446;2023-12-22T12:11:05;11.20;99.90
41294;DHT22;27037;52.010;4.446;2023-12-22T12:13:33;11.20;99.90
41294;DHT22;27037;52.010;4.446;2023-12-22T12:16:00;11.20;99.90
41294;DHT22;27037;52.010;4.446;2023-12-22T12:18:31;11.20;99.90
41294;DHT22;27037;52.010;4.446;2023-12-22T12:20:57;11.20;99.90
41294;DHT22;27037;52.010;4.446;2023-12-22T12:23:29;11.20;99.90
41294;DHT22;27037;52.010;4.446;2023-12-22T12:25:55;11.20;99.90
41294;DHT22;27037;52.010;4.446;2023-12-22T12:28:31;11.20;99.90
41294;DHT22;27037;52.010;4.446;2023-12-22T12:31:05;11.20;99.90
41294;DHT22;27037;52.010;4.446;2023-12-22T12:33:31;11.30;99.90
41294;DHT22;27037;52.010;4.446;2023-12-22T12:36:01;11.20;99.90
41294;DHT22;27037;52.010;4.446;2023-12-22T12:38:55;11.20;99.90
41294;DHT22;27037;52.010;4.446;2023-12-22T12:41:30;11.30;99.90
41294;DHT22;27037;52.010;4.446;2023-12-22T12:43:58;11.30;99.90
41294;DHT22;27037;52.010;4.446;2023-12-22T12:46:39;11.30;99.90
41294;DHT22;27037;52.010;4.446;2023-12-22T12:49:08;11.30;99.90
41294;DHT22;27037;52.010;4.446;2023-12-22T12:51:45;11.30;99.90
41294;DHT22;27037;52.010;4.446;2023-12-22T12:54:12;11.30;99.90
41294;DHT22;27037;52.010;4.446;2023-12-22T12:56:40;11.30;99.90
41294;DHT22;27037;52.010;4.446;2023-12-22T12:59:14;11.30;99.90
41294;DHT22;27037;52.010;4.446;2023-12-22T13:01:47;11.30;99.90
41294;DHT22;27037;52.010;4.446;2023-12-22T13:04:13;11.30;99.90
41294;DHT22;27037;52.010;4.446;2023-12-22T13:06:46;11.30;99.90
41294;DHT22;27037;52.010;4.446;2023-12-22T13:09:12;11.30;99.90
41294;DHT22;27037;52.010;4.446;2023-12-22T13:11:42;11.30;99.90
41294;DHT22;27037;52.010;4.446;2023-12-22T13:14:12;11.30;99.90
41294;DHT22;27037;52.010;4.446;2023-12-22T13:16:38;11.30;99.90
41294;DHT22;27037;52.010;4.446;2023-12-22T13:19:05;11.20;99.90
41294;DHT22;27037;52.010;4.446;2023-12-22T13:21:31;11.20;99.90
41294;DHT22;27037;52.010;4.446;2023-12-22T13:24:09;11.30;99.90
41294;DHT22;27037;52.010;4.446;2023-12-22T13:26:36;11.20;99.90
41294;DHT22;27037;52.010;4.446;2023-12-22T13:29:01;11.20;99.90
41294;DHT22;27037;52.010;4.446;2023-12-22T13:31:27;11.20;99.90
41294;DHT22;27037;52.010;4.446;2023-12-22T13:33:53;11.20;99.90
41294;DHT22;27037;52.010;4.446;2023-12-22T13:36:19;11.20;99.90
41294;DHT22;27037;52.010;4.446;2023-12-22T13:38:48;11.30;99.90
41294;DHT22;27037;52.010;4.446;2023-12-22T13:41:15;11.30;99.90
41294;DHT22;27037;52.010;4.446;2023-12-22T13:43:41;11.30;99.90
41294;DHT22;27037;52.010;4.446;2023-12-22T13:46:07;11.30;99.90
41294;DHT22;27037;52.010;4.446;2023-12-22T13:48:36;11.30;99.90
41294;DHT22;27037;52.010;4.446;2023-12-22T13:51:02;11.30;99.90
41294;DHT22;27037;52.010;4.446;2023-12-22T13:53:28;11.30;99.90
41294;DHT22;27037;52.010;4.446;2023-12-22T13:55:58;11.30;99.90
41294;DHT22;27037;52.010;4.446;2023-12-22T13:58:24;11.30;99.90
41294;DHT22;27037;52.010;4.446;2023-12-22T14:00:50;11.30;99.90
41294;DHT22;27037;52.010;4.446;2023-12-22T14:03:16;11.40;99.90
41294;DHT22;27037;52.010;4.446;2023-12-22T14:05:43;11.30;99.90
41294;DHT22;27037;52.010;4.446;2023-12-22T14:08:08;11.30;99.90
41294;DHT22;27037;52.010;4.446;2023-12-22T14:10:34;11.30;99.90
41294;DHT22;27037;52.010;4.446;2023-12-22T14:13:00;11.30;99.90
41294;DHT22;27037;52.010;4.446;2023-12-22T14:15:25;11.30;99.90
41294;DHT22;27037;52.010;4.446;2023-12-22T14:17:54;11.30;99.90
41294;DHT22;27037;52.010;4.446;2023-12-22T14:20:21;11.30;99.90
41294;DHT22;27037;52.010;4.446;2023-12-22T14:22:46;11.30;99.90
41294;DHT22;27037;52.010;4.446;2023-12-22T14:25:12;11.20;99.90
41294;DHT22;27037;52.010;4.446;2023-12-22T14:27:38;11.30;99.90
41294;DHT22;27037;52.010;4.446;2023-12-22T14:30:04;11.30;99.90
41294;DHT22;27037;52.010;4.446;2023-12-22T14:32:29;11.30;99.90
41294;DHT22;27037;52.010;4.446;2023-12-22T14:34:55;11.30;99.90
41294;DHT22;27037;52.010;4.446;2023-12-22T14:37:21;11.30;99.90
41294;DHT22;27037;52.010;4.446;2023-12-22T14:39:47;11.30;99.90
41294;DHT22;27037;52.010;4.446;2023-12-22T14:42:13;11.30;99.90
41294;DHT22;27037;52.010;4.446;2023-12-22T14:44:40;11.30;99.90
41294;DHT22;27037;52.010;4.446;2023-12-22T14:47:06;11.30;99.90
41294;DHT22;27037;52.010;4.446;2023-12-22T14:49:32;11.30;99.90
41294;DHT22;27037;52.010;4.446;2023-12-22T14:51:57;11.30;99.90
41294;DHT22;27037;52.010;4.446;2023-12-22T14:54:25;11.30;99.90
41294;DHT22;27037;52.010;4.446;2023-12-22T14:56:50;11.30;99.90
41294;DHT22;27037;52.010;4.446;2023-12-22T14:59:16;11.30;99.90
41294;DHT22;27037;52.010;4.446;2023-12-22T15:01:42;11.30;99.90
41294;DHT22;27037;52.010;4.446;2023-12-22T15:04:08;11.30;99.90
41294;DHT22;27037;52.010;4.446;2023-12-22T15:06:43;11.30;99.90
41294;DHT22;27037;52.010;4.446;2023-12-22T15:09:09;11.30;99.90
41294;DHT22;27037;52.010;4.446;2023-12-22T15:11:43;11.30;99.90
41294;DHT22;27037;52.010;4.446;2023-12-22T15:14:09;11.30;99.90
41294;DHT22;27037;52.010;4.446;2023-12-22T15:16:41;11.30;99.90
41294;DHT22;27037;52.010;4.446;2023-12-22T15:19:13;11.30;99.90
41294;DHT22;27037;52.010;4.446;2023-12-22T15:21:39;11.30;99.90
41294;DHT22;27037;52.010;4.446;2023-12-22T15:24:06;11.30;99.90
41294;DHT22;27037;52.010;4.446;2023-12-22T15:26:31;11.20;99.90
41294;DHT22;27037;52.010;4.446;2023-12-22T15:28:59;11.20;99.90
41294;DHT22;27037;52.010;4.446;2023-12-22T15:31:25;11.20;99.90
41294;DHT22;27037;52.010;4.446;2023-12-22T15:33:51;11.20;99.90
41294;DHT22;27037;52.010;4.446;2023-12-22T15:36:17;11.20;99.90
41294;DHT22;27037;52.010;4.446;2023-12-22T15:38:44;11.20;99.90
41294;DHT22;27037;52.010;4.446;2023-12-22T15:41:10;11.20;99.90
41294;DHT22;27037;52.010;4.446;2023-12-22T15:43:36;11.20;99.90
41294;DHT22;27037;52.010;4.446;2023-12-22T15:46:06;11.20;99.90